createdAt,value
2022-09-06T00:02:46.202Z,19.13
2022-09-06T00:07:47.978Z,19.04
2022-09-06T00:12:49.538Z,19.04
2022-09-06T00:17:51.654Z,19.24
2022-09-06T00:23:00.348Z,19.25
2022-09-06T00:28:04.335Z,19.18
2022-09-06T00:33:05.887Z,19.05
2022-09-06T00:38:07.439Z,18.98
2022-09-06T00:43:09.031Z,18.78
2022-09-06T00:48:10.616Z,18.72
2022-09-06T00:53:12.309Z,18.77
2022-09-06T00:58:13.883Z,18.79
2022-09-06T01:03:15.574Z,18.76
2022-09-06T01:08:37.392Z,18.94
2022-09-06T01:13:55.400Z,18.77
2022-09-06T01:19:03.115Z,18.77
2022-09-06T01:24:29.663Z,18.62
2022-09-06T01:29:43.938Z,18.58
2022-09-06T01:34:53.470Z,18.83
2022-09-06T01:39:55.112Z,18.83
2022-09-06T01:45:00.746Z,18.91
2022-09-06T01:50:39.459Z,18.70
2022-09-06T01:56:06.595Z,18.86
2022-09-06T02:01:33.848Z,18.88
2022-09-06T02:06:40.737Z,18.83
2022-09-06T02:11:50.827Z,18.50
2022-09-06T02:16:54.174Z,18.26
2022-09-06T02:21:57.586Z,18.47
2022-09-06T02:26:59.212Z,18.58
2022-09-06T02:32:08.664Z,18.65
2022-09-06T02:37:11.347Z,18.44
2022-09-06T02:42:14.767Z,18.14
2022-09-06T02:47:16.804Z,18.49
2022-09-06T02:52:18.352Z,18.61
2022-09-06T02:57:19.995Z,18.22
2022-09-06T03:02:21.601Z,18.12
2022-09-06T03:07:23.236Z,18.03
2022-09-06T03:12:24.814Z,18.47
2022-09-06T03:17:26.375Z,18.32
2022-09-06T03:22:27.955Z,18.44
2022-09-06T03:27:29.586Z,18.59
2022-09-06T03:32:31.140Z,18.36
2022-09-06T03:37:32.692Z,18.49
2022-09-06T03:42:34.270Z,18.38
2022-09-06T03:47:35.853Z,18.28
2022-09-06T03:52:37.439Z,18.21
2022-09-06T03:57:39.045Z,18.14
2022-09-06T04:02:40.621Z,18.34
2022-09-06T04:07:43.263Z,18.01
2022-09-06T04:12:45.280Z,18.15
2022-09-06T04:17:47.220Z,17.94
2022-09-06T04:22:48.765Z,18.20
2022-09-06T04:27:50.363Z,18.00
2022-09-06T04:32:52.049Z,17.81
2022-09-06T04:37:53.584Z,17.71
2022-09-06T04:42:55.104Z,17.73
2022-09-06T04:47:56.714Z,17.82
2022-09-06T04:52:58.281Z,17.74
2022-09-06T04:58:03.499Z,17.67
2022-09-06T05:03:05.176Z,17.77
2022-09-06T05:08:06.767Z,17.87
2022-09-06T05:13:08.317Z,18.04
2022-09-06T05:18:12.928Z,18.18
2022-09-06T05:23:17.852Z,17.99
2022-09-06T05:28:19.997Z,18.21
2022-09-06T05:33:22.667Z,18.32
2022-09-06T05:38:29.188Z,18.39
2022-09-06T05:43:31.198Z,18.55
2022-09-06T05:48:36.781Z,18.59
2022-09-06T05:53:41.419Z,18.73
2022-09-06T05:58:43.163Z,18.80
2022-09-06T06:03:57.449Z,18.91
2022-09-06T06:08:59.597Z,19.04
2022-09-06T06:14:02.697Z,19.15
2022-09-06T06:19:04.315Z,19.16
2022-09-06T06:24:06.347Z,19.19
2022-09-06T06:29:09.614Z,19.20
2022-09-06T06:34:11.609Z,19.25
2022-09-06T06:39:13.153Z,19.33
2022-09-06T06:44:14.720Z,19.28
2022-09-06T06:49:16.559Z,19.43
2022-09-06T06:54:18.322Z,19.49
2022-09-06T06:59:20.809Z,19.55
2022-09-06T07:04:23.034Z,19.62
2022-09-06T07:09:24.820Z,19.68
2022-09-06T07:14:26.390Z,19.75
2022-09-06T07:24:49.601Z,19.89
2022-09-06T07:29:51.193Z,19.86
2022-09-06T07:34:52.827Z,19.98
2022-09-06T07:39:54.680Z,19.96
2022-09-06T07:44:57.720Z,20.01
2022-09-06T07:55:20.859Z,20.03
2022-09-06T08:00:22.532Z,20.08
2022-09-06T08:10:50.707Z,20.12
2022-09-06T08:16:03.025Z,20.17
2022-09-06T08:21:12.633Z,20.22
2022-09-06T08:26:15.963Z,20.26
2022-09-06T08:31:17.858Z,20.32
2022-09-06T08:36:20.041Z,20.37
2022-09-06T08:41:58.541Z,20.49
2022-09-06T08:47:04.434Z,20.55
2022-09-06T08:52:11.862Z,20.64
2022-09-06T08:57:20.316Z,20.81
2022-09-06T09:02:22.391Z,20.90
2022-09-06T09:07:59.673Z,20.97
2022-09-06T09:13:02.706Z,21.08
2022-09-06T09:18:04.357Z,21.11
2022-09-06T09:23:06.001Z,21.18
2022-09-06T09:28:16.617Z,21.29
2022-09-06T09:33:29.442Z,21.31
2022-09-06T09:38:35.500Z,21.32
2022-09-06T09:43:39.704Z,21.40
2022-09-06T09:49:02.248Z,21.42
2022-09-06T09:54:07.217Z,21.42
2022-09-06T09:59:17.149Z,21.49
2022-09-06T10:04:46.235Z,21.57
2022-09-06T10:09:49.327Z,21.65
2022-09-06T10:14:50.948Z,21.73
2022-09-06T10:19:52.971Z,21.77
2022-09-06T10:25:32.057Z,21.90
2022-09-06T10:30:36.366Z,21.82
2022-09-06T10:35:38.311Z,21.91
2022-09-06T10:41:10.037Z,21.95
2022-09-06T10:46:15.192Z,22.01
2022-09-06T10:51:20.679Z,22.10
2022-09-06T10:56:44.621Z,22.14
2022-09-06T11:02:02.761Z,22.23
2022-09-06T11:07:11.725Z,22.34
2022-09-06T11:12:34.926Z,22.33
2022-09-06T11:17:58.812Z,22.32
2022-09-06T11:23:19.010Z,22.33
2022-09-06T11:28:29.402Z,22.45
2022-09-06T11:33:35.509Z,22.45
2022-09-06T11:38:37.253Z,22.43
2022-09-06T11:43:53.637Z,22.49
2022-09-06T11:49:19.932Z,22.58
2022-09-06T11:54:26.966Z,22.55
2022-09-06T11:59:52.654Z,22.54
2022-09-06T12:05:04.627Z,22.64
2022-09-06T12:10:40.734Z,22.76
2022-09-06T12:15:52.902Z,22.81
2022-09-06T12:20:54.922Z,22.85
2022-09-06T12:25:57.475Z,23.04
2022-09-06T12:30:59.077Z,22.97
2022-09-06T12:36:32.984Z,23.07
2022-09-06T12:41:56.755Z,23.31
2022-09-06T12:47:03.755Z,23.39
2022-09-06T12:52:07.062Z,23.41
2022-09-06T12:57:26.940Z,23.40
2022-09-06T13:02:37.435Z,23.46
2022-09-06T13:07:43.027Z,23.42
2022-09-06T13:12:45.763Z,23.45
2022-09-06T13:17:47.567Z,23.28
2022-09-06T13:22:50.873Z,23.29
2022-09-06T13:27:58.991Z,23.23
2022-09-06T13:33:01.075Z,23.19
2022-09-06T13:38:35.022Z,23.08
2022-09-06T13:43:45.095Z,22.76
2022-09-06T13:48:46.679Z,22.65
2022-09-06T13:53:48.951Z,22.44
2022-09-06T13:58:50.503Z,22.14
2022-09-06T14:03:52.715Z,22.04
2022-09-06T14:09:06.818Z,21.82
2022-09-06T14:14:09.894Z,21.65
2022-09-06T14:19:11.539Z,21.57
2022-09-06T14:24:13.197Z,21.67
2022-09-06T14:29:14.803Z,21.47
2022-09-06T14:34:16.506Z,21.32
2022-09-06T14:39:18.567Z,21.25
2022-09-06T14:44:20.110Z,21.27
2022-09-06T14:49:21.783Z,21.14
2022-09-06T14:54:27.367Z,21.14
2022-09-06T14:59:30.658Z,21.17
2022-09-06T15:04:33.357Z,21.12
2022-09-06T15:09:34.954Z,21.08
2022-09-06T15:14:37.549Z,21.08
2022-09-06T15:19:39.654Z,21.10
2022-09-06T15:24:41.277Z,21.07
2022-09-06T15:29:42.809Z,21.05
2022-09-06T15:34:44.366Z,21.03
2022-09-06T15:39:46.018Z,20.84
2022-09-06T15:44:47.787Z,20.89
2022-09-06T15:49:49.384Z,20.84
2022-09-06T15:55:09.712Z,20.79
2022-09-06T16:00:12.195Z,20.75
2022-09-06T16:05:13.989Z,20.75
2022-09-06T16:10:15.550Z,20.74
2022-09-06T16:15:17.246Z,20.83
2022-09-06T16:20:19.342Z,20.88
2022-09-06T16:25:21.057Z,20.79
2022-09-06T16:30:23.068Z,20.78
2022-09-06T16:35:25.258Z,20.78
2022-09-06T16:40:27.558Z,20.82
2022-09-06T16:45:30.537Z,20.80
2022-09-06T16:50:33.064Z,20.74
2022-09-06T16:55:38.163Z,20.80
2022-09-06T17:00:44.791Z,20.73
2022-09-06T17:05:53.044Z,20.71
2022-09-06T17:10:54.991Z,20.65
2022-09-06T17:16:20.052Z,20.63
2022-09-06T17:21:24.635Z,20.59
2022-09-06T17:26:26.562Z,20.50
2022-09-06T17:31:28.966Z,20.52
2022-09-06T17:36:32.218Z,20.49
2022-09-06T17:41:46.855Z,20.49
2022-09-06T17:47:09.122Z,20.51
2022-09-06T17:52:11.577Z,20.42
2022-09-06T17:57:13.491Z,20.35
2022-09-06T18:02:15.198Z,20.37
2022-09-06T18:07:17.789Z,20.28
2022-09-06T18:12:20.363Z,20.23
2022-09-06T18:17:23.955Z,20.19
2022-09-06T18:22:25.625Z,20.11
2022-09-06T18:27:28.292Z,20.11
2022-09-06T18:32:30.384Z,20.00
2022-09-06T18:37:36.117Z,20.02
2022-09-06T18:42:44.105Z,19.94
2022-09-06T18:47:45.966Z,19.93
2022-09-06T18:52:47.570Z,19.95
2022-09-06T18:57:49.351Z,19.88
2022-09-06T19:02:51.249Z,19.87
2022-09-06T19:07:53.774Z,19.79
2022-09-06T19:12:57.085Z,19.76
2022-09-06T19:17:58.681Z,19.73
2022-09-06T19:23:00.462Z,19.88
2022-09-06T19:28:02.406Z,19.80
2022-09-06T19:33:03.993Z,19.81
2022-09-06T19:38:06.051Z,19.96
2022-09-06T19:43:07.686Z,19.75
2022-09-06T19:48:10.296Z,19.70
2022-09-06T19:53:12.148Z,19.70
2022-09-06T19:58:13.740Z,19.74
2022-09-06T20:03:15.603Z,19.75
2022-09-06T20:08:17.843Z,19.60
2022-09-06T20:13:20.460Z,19.52
2022-09-06T20:18:22.640Z,19.67
2022-09-06T20:23:24.359Z,19.39
2022-09-06T20:28:26.315Z,19.32
2022-09-06T20:33:28.619Z,19.35
2022-09-06T20:38:31.731Z,19.44
2022-09-06T20:43:36.558Z,19.22
2022-09-06T20:48:43.614Z,19.29
2022-09-06T20:53:56.822Z,19.09
2022-09-06T20:59:00.760Z,19.17
2022-09-06T21:04:04.645Z,19.03
2022-09-06T21:09:12.131Z,19.14
2022-09-06T21:14:14.168Z,18.98
2022-09-06T21:19:16.399Z,18.85
2022-09-06T21:24:18.047Z,18.78
2022-09-06T21:29:19.736Z,18.81
2022-09-06T21:34:22.460Z,18.75
2022-09-06T21:39:24.183Z,18.67
2022-09-06T21:44:26.316Z,18.68
2022-09-06T21:49:28.550Z,18.75
2022-09-06T21:54:30.083Z,18.77
2022-09-06T21:59:32.082Z,18.87
2022-09-06T22:04:33.657Z,18.74
2022-09-06T22:09:35.287Z,18.56
2022-09-06T22:14:37.102Z,18.51
2022-09-06T22:19:38.754Z,18.70
2022-09-06T22:24:40.405Z,18.82
2022-09-06T22:29:42.174Z,18.92
2022-09-06T22:34:44.458Z,18.76
2022-09-06T22:39:48.035Z,18.70
2022-09-06T22:44:50.046Z,18.59
2022-09-06T22:49:51.878Z,18.41
2022-09-06T22:54:53.696Z,18.37
2022-09-06T22:59:55.534Z,18.26
2022-09-06T23:04:57.762Z,18.52
2022-09-06T23:09:59.443Z,18.55
2022-09-06T23:15:01.116Z,18.41
2022-09-06T23:20:03.903Z,18.34
2022-09-06T23:25:07.116Z,18.52
2022-09-06T23:30:09.578Z,18.32
2022-09-06T23:35:11.345Z,18.15
2022-09-06T23:40:13.356Z,18.17
2022-09-06T23:45:15.229Z,18.47
2022-09-06T23:50:16.881Z,18.07
2022-09-06T23:55:18.732Z,18.20
